Forside
METAR-TAF:

METAR-TAF

Lufthavne :

Dubai International Airport

Dubai, Forenede Arabiske Emirater

Breddekreds: 25-15-10N, længdekreds: 055-21-52E, højde: 8 m

Aktuelle vejr

Denne rapport blev lavet for 17 minutter siden, kl. 13:00 UTC
Vind 10 kt fra vestnordvest
Temperatur 22°C
Fugtighed 50%
Tryk 1015 hPa
Sigt 10 km eller mere
Nogle få skyer i en højde af 4000 ft

METAR: OMDB 221300Z 29010KT 9999 FEW040 22/11 Q1015 NOSIG

Tid: 17:17 (13:17 UTC)

Vejrudsigter

Denne rapport blev lavet for 2 timer og 20 minutter siden, kl. 10:57 UTC
Foreløbig gælder fra 22 på 12 UTC til 23 på 18 UTC
Vind 10 kt fra vest
Sigt 10 km eller mere
Spredte skyer i en højde af 4000 ft
ændring
fra 22 på 16 UTC til 22 på 18 UTC
Vind 7 kt fra syd
Sandsynlighed 30%
fra 23 på 00 UTC til 23 på 05 UTC
Sigt: 4000 m
tåge/dis
ændring
fra 23 på 06 UTC til 23 på 08 UTC
Vind 10 kt fra vestnordvest

TAF: OMDB 221057Z 2212/2318 28010KT 9999 SCT040 BECMG 2216/2218 18007KT PROB30 2300/2305 4000 HZ BECMG 2306/2308 30010KT

Vejrobservationer og prognoser fra mere end 4000 lufthavne (METAR og TAF).

De gule og røde prikker repræsenterer de meteorologiske stationer.

Flyt musen over at se navnet på stationen.

Så klik over at se vejr observationer og prognoser.

At skifte det kort: Klik på de grønne knapper med et sort kors for at zoome ind; på den grønne knap med en bindestreg for at zoome ud; eller på de grønne pile for tilstødende kort.


METAR-TAF: